sensor_id;sensor_type;location;lat;lon;timestamp;P1;durP1;ratioP1;P2;durP2;ratioP2
27796;SDS011;15177;50.844;4.412;2023-05-24T00:02:08;20.77;;;3.60;;
27796;SDS011;15177;50.844;4.412;2023-05-24T00:04:34;18.97;;;4.20;;
27796;SDS011;15177;50.844;4.412;2023-05-24T00:07:00;17.70;;;3.17;;
27796;SDS011;15177;50.844;4.412;2023-05-24T00:09:29;16.17;;;3.80;;
27796;SDS011;15177;50.844;4.412;2023-05-24T00:11:55;21.63;;;4.37;;
27796;SDS011;15177;50.844;4.412;2023-05-24T00:14:20;22.27;;;4.00;;
27796;SDS011;15177;50.844;4.412;2023-05-24T00:16:46;17.70;;;3.70;;
27796;SDS011;15177;50.844;4.412;2023-05-24T00:19:12;17.53;;;3.73;;
27796;SDS011;15177;50.844;4.412;2023-05-24T00:21:42;18.67;;;3.83;;
27796;SDS011;15177;50.844;4.412;2023-05-24T00:24:11;21.00;;;4.00;;
27796;SDS011;15177;50.844;4.412;2023-05-24T00:26:37;11.43;;;3.73;;
27796;SDS011;15177;50.844;4.412;2023-05-24T00:29:03;16.93;;;4.20;;
27796;SDS011;15177;50.844;4.412;2023-05-24T00:31:29;19.63;;;3.30;;
27796;SDS011;15177;50.844;4.412;2023-05-24T00:33:55;18.87;;;3.57;;
27796;SDS011;15177;50.844;4.412;2023-05-24T00:36:21;18.40;;;3.73;;
27796;SDS011;15177;50.844;4.412;2023-05-24T00:38:47;22.03;;;4.20;;
27796;SDS011;15177;50.844;4.412;2023-05-24T00:41:12;14.93;;;4.37;;
27796;SDS011;15177;50.844;4.412;2023-05-24T00:43:38;19.10;;;3.03;;
27796;SDS011;15177;50.844;4.412;2023-05-24T00:48:52;17.10;;;3.53;;
27796;SDS011;15177;50.844;4.412;2023-05-24T00:51:18;21.47;;;4.23;;
27796;SDS011;15177;50.844;4.412;2023-05-24T00:53:44;15.33;;;4.27;;
27796;SDS011;15177;50.844;4.412;2023-05-24T00:56:12;20.10;;;4.30;;
27796;SDS011;15177;50.844;4.412;2023-05-24T00:58:38;22.33;;;4.97;;
27796;SDS011;15177;50.844;4.412;2023-05-24T01:01:06;12.67;;;3.27;;
27796;SDS011;15177;50.844;4.412;2023-05-24T01:03:32;25.27;;;5.00;;
27796;SDS011;15177;50.844;4.412;2023-05-24T01:05:59;21.23;;;4.67;;
27796;SDS011;15177;50.844;4.412;2023-05-24T01:08:38;31.63;;;4.57;;
27796;SDS011;15177;50.844;4.412;2023-05-24T01:11:16;15.40;;;4.93;;
27796;SDS011;15177;50.844;4.412;2023-05-24T01:13:54;18.67;;;4.70;;
27796;SDS011;15177;50.844;4.412;2023-05-24T01:27:35;17.87;;;4.57;;
27796;SDS011;15177;50.844;4.412;2023-05-24T01:30:02;13.73;;;4.13;;
27796;SDS011;15177;50.844;4.412;2023-05-24T01:32:29;17.47;;;3.73;;
27796;SDS011;15177;50.844;4.412;2023-05-24T01:34:55;21.33;;;3.90;;
27796;SDS011;15177;50.844;4.412;2023-05-24T01:37:20;20.83;;;4.40;;
27796;SDS011;15177;50.844;4.412;2023-05-24T01:39:47;22.53;;;4.43;;
27796;SDS011;15177;50.844;4.412;2023-05-24T01:43:02;18.17;;;4.33;;
27796;SDS011;15177;50.844;4.412;2023-05-24T01:45:08;18.30;;;4.27;;
27796;SDS011;15177;50.844;4.412;2023-05-24T01:50:52;26.47;;;4.87;;
27796;SDS011;15177;50.844;4.412;2023-05-24T01:53:21;21.47;;;4.73;;
27796;SDS011;15177;50.844;4.412;2023-05-24T01:55:53;30.97;;;5.30;;
27796;SDS011;15177;50.844;4.412;2023-05-24T01:58:22;17.07;;;5.00;;
27796;SDS011;15177;50.844;4.412;2023-05-24T02:00:50;21.00;;;4.40;;
27796;SDS011;15177;50.844;4.412;2023-05-24T02:03:17;14.93;;;3.53;;
27796;SDS011;15177;50.844;4.412;2023-05-24T02:05:46;14.97;;;4.50;;
27796;SDS011;15177;50.844;4.412;2023-05-24T02:08:12;19.40;;;4.20;;
27796;SDS011;15177;50.844;4.412;2023-05-24T02:10:38;16.50;;;3.67;;
27796;SDS011;15177;50.844;4.412;2023-05-24T02:13:04;13.03;;;4.23;;
27796;SDS011;15177;50.844;4.412;2023-05-24T02:15:31;23.73;;;4.27;;
27796;SDS011;15177;50.844;4.412;2023-05-24T02:17:57;19.07;;;5.63;;
27796;SDS011;15177;50.844;4.412;2023-05-24T02:20:25;14.97;;;3.97;;
27796;SDS011;15177;50.844;4.412;2023-05-24T02:22:52;23.43;;;4.80;;
27796;SDS011;15177;50.844;4.412;2023-05-24T02:25:18;16.93;;;4.17;;
27796;SDS011;15177;50.844;4.412;2023-05-24T02:27:43;15.37;;;5.50;;
27796;SDS011;15177;50.844;4.412;2023-05-24T02:30:11;22.27;;;4.90;;
27796;SDS011;15177;50.844;4.412;2023-05-24T02:32:37;16.00;;;4.20;;
27796;SDS011;15177;50.844;4.412;2023-05-24T02:35:03;24.97;;;4.30;;
27796;SDS011;15177;50.844;4.412;2023-05-24T02:37:29;24.57;;;4.40;;
27796;SDS011;15177;50.844;4.412;2023-05-24T02:39:55;15.00;;;4.23;;
27796;SDS011;15177;50.844;4.412;2023-05-24T02:42:21;14.23;;;4.73;;
27796;SDS011;15177;50.844;4.412;2023-05-24T02:44:47;15.77;;;3.77;;
27796;SDS011;15177;50.844;4.412;2023-05-24T02:47:13;18.43;;;4.30;;
27796;SDS011;15177;50.844;4.412;2023-05-24T02:49:39;17.70;;;5.10;;
27796;SDS011;15177;50.844;4.412;2023-05-24T02:52:05;16.87;;;4.60;;
27796;SDS011;15177;50.844;4.412;2023-05-24T02:54:31;13.57;;;4.20;;
27796;SDS011;15177;50.844;4.412;2023-05-24T02:56:56;20.30;;;3.70;;
27796;SDS011;15177;50.844;4.412;2023-05-24T02:59:22;20.00;;;5.50;;
27796;SDS011;15177;50.844;4.412;2023-05-24T03:01:48;15.33;;;4.00;;
27796;SDS011;15177;50.844;4.412;2023-05-24T03:04:14;16.73;;;4.10;;
27796;SDS011;15177;50.844;4.412;2023-05-24T03:06:40;24.03;;;4.67;;
27796;SDS011;15177;50.844;4.412;2023-05-24T03:09:06;17.20;;;4.33;;
27796;SDS011;15177;50.844;4.412;2023-05-24T03:11:31;28.80;;;5.27;;
27796;SDS011;15177;50.844;4.412;2023-05-24T03:13:57;20.73;;;4.70;;
27796;SDS011;15177;50.844;4.412;2023-05-24T03:16:24;21.30;;;4.83;;
27796;SDS011;15177;50.844;4.412;2023-05-24T03:18:49;25.77;;;5.13;;
27796;SDS011;15177;50.844;4.412;2023-05-24T03:21:16;19.27;;;4.43;;
27796;SDS011;15177;50.844;4.412;2023-05-24T03:23:44;17.73;;;4.23;;
27796;SDS011;15177;50.844;4.412;2023-05-24T03:26:10;20.27;;;5.40;;
27796;SDS011;15177;50.844;4.412;2023-05-24T03:28:37;17.83;;;4.40;;
27796;SDS011;15177;50.844;4.412;2023-05-24T03:31:04;15.00;;;5.30;;
27796;SDS011;15177;50.844;4.412;2023-05-24T03:33:30;20.53;;;5.03;;
27796;SDS011;15177;50.844;4.412;2023-05-24T03:35:56;24.57;;;5.13;;
27796;SDS011;15177;50.844;4.412;2023-05-24T03:38:22;28.07;;;5.60;;
27796;SDS011;15177;50.844;4.412;2023-05-24T03:40:47;25.33;;;5.77;;
27796;SDS011;15177;50.844;4.412;2023-05-24T03:43:14;26.17;;;6.47;;
27796;SDS011;15177;50.844;4.412;2023-05-24T03:45:41;20.97;;;5.50;;
27796;SDS011;15177;50.844;4.412;2023-05-24T03:48:06;16.63;;;4.67;;
27796;SDS011;15177;50.844;4.412;2023-05-24T03:50:32;25.17;;;6.53;;
27796;SDS011;15177;50.844;4.412;2023-05-24T03:52:58;21.77;;;5.97;;
27796;SDS011;15177;50.844;4.412;2023-05-24T03:55:23;20.10;;;5.07;;
27796;SDS011;15177;50.844;4.412;2023-05-24T03:57:49;26.80;;;5.47;;
27796;SDS011;15177;50.844;4.412;2023-05-24T04:00:15;17.17;;;4.80;;
27796;SDS011;15177;50.844;4.412;2023-05-24T04:02:40;23.07;;;5.67;;
27796;SDS011;15177;50.844;4.412;2023-05-24T04:05:06;23.30;;;6.53;;
27796;SDS011;15177;50.844;4.412;2023-05-24T04:07:34;31.07;;;6.50;;
27796;SDS011;15177;50.844;4.412;2023-05-24T04:10:02;27.67;;;5.97;;
27796;SDS011;15177;50.844;4.412;2023-05-24T04:12:29;27.20;;;6.97;;
27796;SDS011;15177;50.844;4.412;2023-05-24T04:14:56;26.67;;;6.80;;
27796;SDS011;15177;50.844;4.412;2023-05-24T04:17:21;36.63;;;6.93;;
27796;SDS011;15177;50.844;4.412;2023-05-24T04:19:51;18.73;;;5.90;;
27796;SDS011;15177;50.844;4.412;2023-05-24T04:22:17;30.97;;;8.27;;
27796;SDS011;15177;50.844;4.412;2023-05-24T04:24:46;27.70;;;6.87;;
27796;SDS011;15177;50.844;4.412;2023-05-24T04:27:11;24.17;;;6.30;;
27796;SDS011;15177;50.844;4.412;2023-05-24T04:29:40;25.20;;;6.13;;
27796;SDS011;15177;50.844;4.412;2023-05-24T04:32:06;26.87;;;6.07;;
27796;SDS011;15177;50.844;4.412;2023-05-24T04:34:34;25.97;;;6.20;;
27796;SDS011;15177;50.844;4.412;2023-05-24T04:37:00;27.20;;;6.23;;
27796;SDS011;15177;50.844;4.412;2023-05-24T04:39:26;23.77;;;5.47;;
27796;SDS011;15177;50.844;4.412;2023-05-24T04:41:54;27.27;;;5.97;;
27796;SDS011;15177;50.844;4.412;2023-05-24T04:44:22;21.87;;;6.20;;
27796;SDS011;15177;50.844;4.412;2023-05-24T04:46:48;18.10;;;4.97;;
27796;SDS011;15177;50.844;4.412;2023-05-24T04:49:14;20.87;;;4.87;;
27796;SDS011;15177;50.844;4.412;2023-05-24T04:51:40;21.63;;;5.37;;
27796;SDS011;15177;50.844;4.412;2023-05-24T04:54:06;25.90;;;6.20;;
27796;SDS011;15177;50.844;4.412;2023-05-24T04:56:34;26.77;;;5.70;;
27796;SDS011;15177;50.844;4.412;2023-05-24T04:59:02;25.13;;;5.27;;
27796;SDS011;15177;50.844;4.412;2023-05-24T05:01:29;20.10;;;5.57;;
27796;SDS011;15177;50.844;4.412;2023-05-24T05:03:55;22.77;;;7.30;;
27796;SDS011;15177;50.844;4.412;2023-05-24T05:06:21;30.77;;;5.70;;
27796;SDS011;15177;50.844;4.412;2023-05-24T05:08:46;23.83;;;5.53;;
27796;SDS011;15177;50.844;4.412;2023-05-24T05:11:12;22.50;;;4.77;;
27796;SDS011;15177;50.844;4.412;2023-05-24T05:13:38;22.57;;;4.83;;
27796;SDS011;15177;50.844;4.412;2023-05-24T05:16:04;15.93;;;4.13;;
27796;SDS011;15177;50.844;4.412;2023-05-24T05:18:30;22.02;;;5.20;;
27796;SDS011;15177;50.844;4.412;2023-05-24T05:20:59;22.63;;;4.97;;
27796;SDS011;15177;50.844;4.412;2023-05-24T05:23:25;22.27;;;4.85;;
27796;SDS011;15177;50.844;4.412;2023-05-24T05:25:52;20.65;;;5.28;;
27796;SDS011;15177;50.844;4.412;2023-05-24T05:28:18;26.20;;;4.60;;
27796;SDS011;15177;50.844;4.412;2023-05-24T05:30:43;24.50;;;4.90;;
27796;SDS011;15177;50.844;4.412;2023-05-24T05:33:09;25.33;;;4.63;;
27796;SDS011;15177;50.844;4.412;2023-05-24T05:35:35;20.33;;;4.93;;
27796;SDS011;15177;50.844;4.412;2023-05-24T05:38:00;22.23;;;5.15;;
27796;SDS011;15177;50.844;4.412;2023-05-24T05:40:26;30.20;;;5.85;;
27796;SDS011;15177;50.844;4.412;2023-05-24T05:42:51;28.92;;;5.25;;
27796;SDS011;15177;50.844;4.412;2023-05-24T05:45:17;22.30;;;4.70;;
27796;SDS011;15177;50.844;4.412;2023-05-24T05:47:43;21.52;;;4.53;;
27796;SDS011;15177;50.844;4.412;2023-05-24T05:50:09;21.35;;;4.68;;
27796;SDS011;15177;50.844;4.412;2023-05-24T05:52:34;17.98;;;4.30;;
27796;SDS011;15177;50.844;4.412;2023-05-24T05:55:00;14.38;;;4.05;;
27796;SDS011;15177;50.844;4.412;2023-05-24T05:57:26;21.35;;;4.63;;
27796;SDS011;15177;50.844;4.412;2023-05-24T05:59:52;18.02;;;4.53;;
27796;SDS011;15177;50.844;4.412;2023-05-24T06:02:17;14.80;;;4.55;;
27796;SDS011;15177;50.844;4.412;2023-05-24T06:04:44;19.88;;;4.90;;
27796;SDS011;15177;50.844;4.412;2023-05-24T06:07:11;33.33;;;5.28;;
27796;SDS011;15177;50.844;4.412;2023-05-24T06:09:36;25.25;;;5.93;;
27796;SDS011;15177;50.844;4.412;2023-05-24T06:12:02;24.80;;;4.65;;
27796;SDS011;15177;50.844;4.412;2023-05-24T06:14:28;20.13;;;4.90;;
27796;SDS011;15177;50.844;4.412;2023-05-24T06:16:54;23.00;;;3.97;;
27796;SDS011;15177;50.844;4.412;2023-05-24T06:19:21;20.38;;;5.13;;
27796;SDS011;15177;50.844;4.412;2023-05-24T06:21:50;21.05;;;4.55;;
27796;SDS011;15177;50.844;4.412;2023-05-24T06:24:16;31.50;;;4.78;;
27796;SDS011;15177;50.844;4.412;2023-05-24T06:26:46;21.48;;;5.32;;
27796;SDS011;15177;50.844;4.412;2023-05-24T06:29:14;20.10;;;4.85;;
27796;SDS011;15177;50.844;4.412;2023-05-24T06:31:39;21.33;;;5.30;;
27796;SDS011;15177;50.844;4.412;2023-05-24T06:34:07;19.33;;;4.47;;
27796;SDS011;15177;50.844;4.412;2023-05-24T06:36:34;14.75;;;4.85;;
27796;SDS011;15177;50.844;4.412;2023-05-24T06:39:05;19.38;;;4.43;;
27796;SDS011;15177;50.844;4.412;2023-05-24T06:41:31;15.38;;;4.60;;
27796;SDS011;15177;50.844;4.412;2023-05-24T06:43:56;15.32;;;4.68;;
27796;SDS011;15177;50.844;4.412;2023-05-24T06:46:22;19.75;;;5.13;;
27796;SDS011;15177;50.844;4.412;2023-05-24T06:48:48;14.45;;;4.63;;
27796;SDS011;15177;50.844;4.412;2023-05-24T06:51:15;22.85;;;5.63;;
27796;SDS011;15177;50.844;4.412;2023-05-24T06:53:41;20.33;;;5.43;;
27796;SDS011;15177;50.844;4.412;2023-05-24T06:56:06;21.40;;;4.22;;
27796;SDS011;15177;50.844;4.412;2023-05-24T06:58:33;17.25;;;4.45;;
27796;SDS011;15177;50.844;4.412;2023-05-24T07:00:59;16.02;;;4.07;;
27796;SDS011;15177;50.844;4.412;2023-05-24T07:03:25;19.00;;;4.50;;
27796;SDS011;15177;50.844;4.412;2023-05-24T07:05:50;18.50;;;4.13;;
27796;SDS011;15177;50.844;4.412;2023-05-24T07:08:16;16.75;;;3.30;;
27796;SDS011;15177;50.844;4.412;2023-05-24T07:10:42;20.85;;;3.92;;
27796;SDS011;15177;50.844;4.412;2023-05-24T07:13:09;23.17;;;4.25;;
27796;SDS011;15177;50.844;4.412;2023-05-24T07:15:38;20.13;;;4.15;;
27796;SDS011;15177;50.844;4.412;2023-05-24T07:18:05;17.55;;;3.78;;
27796;SDS011;15177;50.844;4.412;2023-05-24T07:20:31;21.38;;;4.60;;
27796;SDS011;15177;50.844;4.412;2023-05-24T07:22:57;21.90;;;4.30;;
27796;SDS011;15177;50.844;4.412;2023-05-24T07:25:22;20.35;;;4.13;;
27796;SDS011;15177;50.844;4.412;2023-05-24T07:27:48;24.17;;;4.30;;
27796;SDS011;15177;50.844;4.412;2023-05-24T07:30:14;17.63;;;3.80;;
27796;SDS011;15177;50.844;4.412;2023-05-24T07:32:41;26.15;;;4.35;;
27796;SDS011;15177;50.844;4.412;2023-05-24T07:35:07;25.65;;;4.82;;
27796;SDS011;15177;50.844;4.412;2023-05-24T07:37:36;17.05;;;3.92;;
27796;SDS011;15177;50.844;4.412;2023-05-24T07:40:03;23.73;;;4.65;;
27796;SDS011;15177;50.844;4.412;2023-05-24T07:42:29;26.05;;;4.68;;
27796;SDS011;15177;50.844;4.412;2023-05-24T07:44:56;23.45;;;4.40;;
27796;SDS011;15177;50.844;4.412;2023-05-24T07:47:21;20.15;;;5.03;;
27796;SDS011;15177;50.844;4.412;2023-05-24T07:49:47;18.25;;;4.40;;
27796;SDS011;15177;50.844;4.412;2023-05-24T07:52:16;13.23;;;3.80;;
27796;SDS011;15177;50.844;4.412;2023-05-24T07:54:41;12.95;;;3.88;;
27796;SDS011;15177;50.844;4.412;2023-05-24T07:57:07;16.35;;;4.20;;
27796;SDS011;15177;50.844;4.412;2023-05-24T07:59:33;14.40;;;4.05;;
27796;SDS011;15177;50.844;4.412;2023-05-24T08:01:58;20.50;;;3.83;;
27796;SDS011;15177;50.844;4.412;2023-05-24T08:04:29;16.08;;;4.53;;
27796;SDS011;15177;50.844;4.412;2023-05-24T08:06:57;21.42;;;3.85;;
27796;SDS011;15177;50.844;4.412;2023-05-24T08:09:23;16.80;;;4.10;;
27796;SDS011;15177;50.844;4.412;2023-05-24T08:11:49;21.90;;;4.85;;
27796;SDS011;15177;50.844;4.412;2023-05-24T08:14:15;20.00;;;3.97;;
27796;SDS011;15177;50.844;4.412;2023-05-24T08:16:43;13.63;;;3.25;;
27796;SDS011;15177;50.844;4.412;2023-05-24T08:19:09;11.38;;;3.45;;
27796;SDS011;15177;50.844;4.412;2023-05-24T08:21:35;14.27;;;4.70;;
27796;SDS011;15177;50.844;4.412;2023-05-24T08:24:01;13.70;;;3.95;;
27796;SDS011;15177;50.844;4.412;2023-05-24T08:26:27;13.25;;;3.10;;
27796;SDS011;15177;50.844;4.412;2023-05-24T08:28:53;15.02;;;3.92;;
27796;SDS011;15177;50.844;4.412;2023-05-24T08:31:19;20.60;;;4.18;;
27796;SDS011;15177;50.844;4.412;2023-05-24T08:33:46;14.25;;;3.33;;
27796;SDS011;15177;50.844;4.412;2023-05-24T08:36:14;15.73;;;3.75;;
27796;SDS011;15177;50.844;4.412;2023-05-24T08:38:40;16.27;;;4.30;;
27796;SDS011;15177;50.844;4.412;2023-05-24T08:41:06;18.98;;;3.97;;
27796;SDS011;15177;50.844;4.412;2023-05-24T08:43:34;21.92;;;4.38;;
27796;SDS011;15177;50.844;4.412;2023-05-24T08:46:03;18.58;;;4.30;;
27796;SDS011;15177;50.844;4.412;2023-05-24T08:48:31;18.50;;;4.80;;
27796;SDS011;15177;50.844;4.412;2023-05-24T08:50:58;21.30;;;5.55;;
27796;SDS011;15177;50.844;4.412;2023-05-24T08:53:25;21.58;;;4.72;;
27796;SDS011;15177;50.844;4.412;2023-05-24T08:55:51;17.92;;;4.72;;
27796;SDS011;15177;50.844;4.412;2023-05-24T08:58:18;15.27;;;4.55;;
27796;SDS011;15177;50.844;4.412;2023-05-24T09:00:44;14.00;;;4.38;;
27796;SDS011;15177;50.844;4.412;2023-05-24T09:03:10;22.80;;;5.20;;
27796;SDS011;15177;50.844;4.412;2023-05-24T09:05:36;20.77;;;5.35;;
27796;SDS011;15177;50.844;4.412;2023-05-24T09:08:05;26.73;;;4.70;;
27796;SDS011;15177;50.844;4.412;2023-05-24T09:10:32;24.60;;;5.40;;
27796;SDS011;15177;50.844;4.412;2023-05-24T09:12:59;13.63;;;4.45;;
27796;SDS011;15177;50.844;4.412;2023-05-24T09:15:27;14.57;;;4.78;;
27796;SDS011;15177;50.844;4.412;2023-05-24T09:17:53;20.65;;;5.43;;
27796;SDS011;15177;50.844;4.412;2023-05-24T09:20:19;15.57;;;4.35;;
27796;SDS011;15177;50.844;4.412;2023-05-24T09:22:51;16.75;;;4.82;;
27796;SDS011;15177;50.844;4.412;2023-05-24T09:25:19;18.27;;;6.18;;
27796;SDS011;15177;50.844;4.412;2023-05-24T09:27:49;14.05;;;5.38;;
27796;SDS011;15177;50.844;4.412;2023-05-24T09:30:16;17.63;;;5.07;;
27796;SDS011;15177;50.844;4.412;2023-05-24T09:32:53;14.13;;;5.10;;
27796;SDS011;15177;50.844;4.412;2023-05-24T09:35:23;14.50;;;5.07;;
27796;SDS011;15177;50.844;4.412;2023-05-24T09:37:53;15.35;;;5.47;;
27796;SDS011;15177;50.844;4.412;2023-05-24T09:40:26;19.65;;;6.40;;
27796;SDS011;15177;50.844;4.412;2023-05-24T09:43:02;20.77;;;6.97;;
27796;SDS011;15177;50.844;4.412;2023-05-24T09:45:42;26.35;;;7.57;;
27796;SDS011;15177;50.844;4.412;2023-05-24T09:48:13;20.25;;;6.65;;
27796;SDS011;15177;50.844;4.412;2023-05-24T09:50:41;26.48;;;6.78;;
27796;SDS011;15177;50.844;4.412;2023-05-24T09:53:11;23.40;;;6.43;;
27796;SDS011;15177;50.844;4.412;2023-05-24T09:55:37;31.10;;;7.00;;
27796;SDS011;15177;50.844;4.412;2023-05-24T09:58:03;26.77;;;7.43;;
27796;SDS011;15177;50.844;4.412;2023-05-24T10:00:37;22.40;;;6.75;;
27796;SDS011;15177;50.844;4.412;2023-05-24T10:03:09;18.95;;;7.22;;
27796;SDS011;15177;50.844;4.412;2023-05-24T10:05:40;23.65;;;7.18;;
27796;SDS011;15177;50.844;4.412;2023-05-24T10:08:06;21.77;;;8.20;;
27796;SDS011;15177;50.844;4.412;2023-05-24T10:10:33;26.23;;;8.65;;
27796;SDS011;15177;50.844;4.412;2023-05-24T10:13:00;27.80;;;9.00;;
27796;SDS011;15177;50.844;4.412;2023-05-24T10:15:27;21.25;;;8.93;;
27796;SDS011;15177;50.844;4.412;2023-05-24T10:17:53;28.45;;;9.05;;
27796;SDS011;15177;50.844;4.412;2023-05-24T10:20:20;21.92;;;8.48;;
27796;SDS011;15177;50.844;4.412;2023-05-24T10:22:48;24.92;;;9.32;;
27796;SDS011;15177;50.844;4.412;2023-05-24T10:25:19;22.25;;;9.82;;
27796;SDS011;15177;50.844;4.412;2023-05-24T10:27:47;28.52;;;10.05;;
27796;SDS011;15177;50.844;4.412;2023-05-24T10:32:56;22.10;;;8.82;;
27796;SDS011;15177;50.844;4.412;2023-05-24T10:35:23;24.65;;;10.55;;
27796;SDS011;15177;50.844;4.412;2023-05-24T10:37:51;32.10;;;11.15;;
27796;SDS011;15177;50.844;4.412;2023-05-24T10:40:18;28.65;;;9.90;;
27796;SDS011;15177;50.844;4.412;2023-05-24T10:42:46;28.45;;;9.68;;
27796;SDS011;15177;50.844;4.412;2023-05-24T10:47:56;27.13;;;8.48;;
27796;SDS011;15177;50.844;4.412;2023-05-24T10:50:24;21.80;;;6.65;;
27796;SDS011;15177;50.844;4.412;2023-05-24T10:53:09;14.80;;;5.68;;
27796;SDS011;15177;50.844;4.412;2023-05-24T10:58:42;19.38;;;5.85;;
27796;SDS011;15177;50.844;4.412;2023-05-24T11:01:28;20.77;;;6.20;;
27796;SDS011;15177;50.844;4.412;2023-05-24T11:04:11;18.67;;;5.88;;
27796;SDS011;15177;50.844;4.412;2023-05-24T11:06:46;15.90;;;6.03;;
27796;SDS011;15177;50.844;4.412;2023-05-24T11:09:19;21.08;;;6.53;;
27796;SDS011;15177;50.844;4.412;2023-05-24T11:11:47;19.13;;;6.60;;
27796;SDS011;15177;50.844;4.412;2023-05-24T11:14:18;19.92;;;5.60;;
27796;SDS011;15177;50.844;4.412;2023-05-24T11:16:48;14.20;;;5.50;;
27796;SDS011;15177;50.844;4.412;2023-05-24T11:19:32;18.80;;;5.93;;
27796;SDS011;15177;50.844;4.412;2023-05-24T11:22:00;18.27;;;4.88;;
27796;SDS011;15177;50.844;4.412;2023-05-24T11:24:27;17.52;;;5.65;;
27796;SDS011;15177;50.844;4.412;2023-05-24T11:26:53;24.30;;;6.90;;
27796;SDS011;15177;50.844;4.412;2023-05-24T11:29:20;19.70;;;5.80;;
27796;SDS011;15177;50.844;4.412;2023-05-24T11:31:51;17.58;;;6.45;;
27796;SDS011;15177;50.844;4.412;2023-05-24T11:34:19;17.08;;;5.07;;
27796;SDS011;15177;50.844;4.412;2023-05-24T11:36:45;19.33;;;5.63;;
27796;SDS011;15177;50.844;4.412;2023-05-24T11:39:17;23.58;;;5.07;;
27796;SDS011;15177;50.844;4.412;2023-05-24T11:41:43;18.77;;;5.65;;
27796;SDS011;15177;50.844;4.412;2023-05-24T11:44:10;15.00;;;5.43;;
27796;SDS011;15177;50.844;4.412;2023-05-24T11:46:39;16.05;;;5.82;;
27796;SDS011;15177;50.844;4.412;2023-05-24T11:49:10;16.95;;;5.30;;
27796;SDS011;15177;50.844;4.412;2023-05-24T11:51:37;25.63;;;5.97;;
27796;SDS011;15177;50.844;4.412;2023-05-24T11:54:03;15.20;;;5.55;;
27796;SDS011;15177;50.844;4.412;2023-05-24T11:56:29;11.73;;;5.60;;
27796;SDS011;15177;50.844;4.412;2023-05-24T11:58:58;19.20;;;5.43;;
27796;SDS011;15177;50.844;4.412;2023-05-24T12:01:39;23.42;;;6.15;;
27796;SDS011;15177;50.844;4.412;2023-05-24T12:04:06;18.90;;;6.07;;
27796;SDS011;15177;50.844;4.412;2023-05-24T12:06:38;14.82;;;5.68;;
27796;SDS011;15177;50.844;4.412;2023-05-24T12:09:06;15.43;;;5.60;;
27796;SDS011;15177;50.844;4.412;2023-05-24T12:11:34;15.20;;;5.13;;
27796;SDS011;15177;50.844;4.412;2023-05-24T12:14:03;21.33;;;5.57;;
27796;SDS011;15177;50.844;4.412;2023-05-24T12:16:29;20.83;;;5.90;;
27796;SDS011;15177;50.844;4.412;2023-05-24T12:18:57;14.10;;;5.88;;
27796;SDS011;15177;50.844;4.412;2023-05-24T12:21:23;17.33;;;5.50;;
27796;SDS011;15177;50.844;4.412;2023-05-24T12:23:49;17.70;;;5.47;;
27796;SDS011;15177;50.844;4.412;2023-05-24T12:26:16;17.17;;;5.40;;
27796;SDS011;15177;50.844;4.412;2023-05-24T12:28:44;15.85;;;5.53;;
27796;SDS011;15177;50.844;4.412;2023-05-24T12:31:12;23.17;;;5.97;;
27796;SDS011;15177;50.844;4.412;2023-05-24T12:33:38;18.00;;;5.32;;
27796;SDS011;15177;50.844;4.412;2023-05-24T12:36:03;12.48;;;4.90;;
27796;SDS011;15177;50.844;4.412;2023-05-24T12:38:30;12.90;;;5.00;;
27796;SDS011;15177;50.844;4.412;2023-05-24T12:40:55;14.07;;;5.45;;
27796;SDS011;15177;50.844;4.412;2023-05-24T12:43:21;17.80;;;5.28;;
27796;SDS011;15177;50.844;4.412;2023-05-24T12:45:47;16.48;;;5.78;;
27796;SDS011;15177;50.844;4.412;2023-05-24T12:48:12;14.07;;;5.28;;
27796;SDS011;15177;50.844;4.412;2023-05-24T12:50:38;14.32;;;5.30;;
27796;SDS011;15177;50.844;4.412;2023-05-24T12:53:04;15.18;;;5.80;;
27796;SDS011;15177;50.844;4.412;2023-05-24T12:55:30;16.60;;;4.50;;
27796;SDS011;15177;50.844;4.412;2023-05-24T12:57:56;15.35;;;5.18;;
27796;SDS011;15177;50.844;4.412;2023-05-24T13:00:23;16.05;;;6.70;;
27796;SDS011;15177;50.844;4.412;2023-05-24T13:02:56;15.35;;;5.22;;
27796;SDS011;15177;50.844;4.412;2023-05-24T13:05:26;14.40;;;5.25;;
27796;SDS011;15177;50.844;4.412;2023-05-24T13:07:53;15.63;;;6.10;;
27796;SDS011;15177;50.844;4.412;2023-05-24T13:10:20;13.52;;;5.22;;
27796;SDS011;15177;50.844;4.412;2023-05-24T13:12:47;21.67;;;4.90;;
27796;SDS011;15177;50.844;4.412;2023-05-24T13:15:13;15.75;;;5.00;;
27796;SDS011;15177;50.844;4.412;2023-05-24T13:17:39;18.10;;;4.90;;
27796;SDS011;15177;50.844;4.412;2023-05-24T13:20:06;14.90;;;4.57;;
27796;SDS011;15177;50.844;4.412;2023-05-24T13:22:35;14.40;;;5.97;;
27796;SDS011;15177;50.844;4.412;2023-05-24T13:25:03;15.73;;;5.13;;
27796;SDS011;15177;50.844;4.412;2023-05-24T13:27:29;15.25;;;4.85;;
27796;SDS011;15177;50.844;4.412;2023-05-24T13:29:55;16.88;;;4.78;;
27796;SDS011;15177;50.844;4.412;2023-05-24T13:32:21;17.13;;;4.63;;
27796;SDS011;15177;50.844;4.412;2023-05-24T13:34:46;19.25;;;5.45;;
27796;SDS011;15177;50.844;4.412;2023-05-24T13:37:12;20.00;;;6.10;;
27796;SDS011;15177;50.844;4.412;2023-05-24T13:39:40;15.95;;;5.38;;
27796;SDS011;15177;50.844;4.412;2023-05-24T13:42:06;16.85;;;5.47;;
27796;SDS011;15177;50.844;4.412;2023-05-24T13:44:32;14.52;;;5.55;;
27796;SDS011;15177;50.844;4.412;2023-05-24T13:46:59;17.75;;;5.63;;
27796;SDS011;15177;50.844;4.412;2023-05-24T13:49:26;17.17;;;5.25;;
27796;SDS011;15177;50.844;4.412;2023-05-24T13:51:53;21.48;;;5.55;;
27796;SDS011;15177;50.844;4.412;2023-05-24T13:54:19;22.08;;;5.65;;
27796;SDS011;15177;50.844;4.412;2023-05-24T13:56:46;19.60;;;5.57;;
27796;SDS011;15177;50.844;4.412;2023-05-24T13:59:13;17.92;;;5.30;;
27796;SDS011;15177;50.844;4.412;2023-05-24T14:01:40;20.98;;;6.13;;
27796;SDS011;15177;50.844;4.412;2023-05-24T14:04:07;16.73;;;5.53;;
27796;SDS011;15177;50.844;4.412;2023-05-24T14:06:33;17.00;;;5.07;;
27796;SDS011;15177;50.844;4.412;2023-05-24T14:09:01;14.77;;;5.05;;
27796;SDS011;15177;50.844;4.412;2023-05-24T14:11:27;15.10;;;4.90;;
27796;SDS011;15177;50.844;4.412;2023-05-24T14:13:55;28.98;;;5.32;;
27796;SDS011;15177;50.844;4.412;2023-05-24T14:16:21;20.73;;;4.70;;
27796;SDS011;15177;50.844;4.412;2023-05-24T14:18:47;16.73;;;4.20;;
27796;SDS011;15177;50.844;4.412;2023-05-24T14:21:14;15.98;;;4.80;;
27796;SDS011;15177;50.844;4.412;2023-05-24T14:23:39;14.70;;;5.10;;
27796;SDS011;15177;50.844;4.412;2023-05-24T14:26:05;17.40;;;5.13;;
27796;SDS011;15177;50.844;4.412;2023-05-24T14:28:31;17.42;;;5.43;;
27796;SDS011;15177;50.844;4.412;2023-05-24T14:30:56;17.75;;;5.50;;
27796;SDS011;15177;50.844;4.412;2023-05-24T14:33:22;16.73;;;4.97;;
27796;SDS011;15177;50.844;4.412;2023-05-24T14:35:48;16.75;;;4.97;;
27796;SDS011;15177;50.844;4.412;2023-05-24T14:38:15;21.67;;;6.47;;
27796;SDS011;15177;50.844;4.412;2023-05-24T14:40:41;18.40;;;5.22;;
27796;SDS011;15177;50.844;4.412;2023-05-24T14:43:11;16.73;;;4.95;;
27796;SDS011;15177;50.844;4.412;2023-05-24T14:45:38;18.85;;;5.40;;
27796;SDS011;15177;50.844;4.412;2023-05-24T14:48:06;15.15;;;5.38;;
27796;SDS011;15177;50.844;4.412;2023-05-24T14:50:36;15.75;;;4.65;;
27796;SDS011;15177;50.844;4.412;2023-05-24T14:53:03;22.75;;;4.95;;
27796;SDS011;15177;50.844;4.412;2023-05-24T14:55:34;17.58;;;4.18;;
27796;SDS011;15177;50.844;4.412;2023-05-24T14:58:00;17.02;;;4.40;;
27796;SDS011;15177;50.844;4.412;2023-05-24T15:00:27;14.05;;;4.00;;